createdAt,value
2019-03-13T00:00:32.357Z,8.08
2019-03-13T00:01:32.307Z,8.05
2019-03-13T00:02:32.295Z,8.16
2019-03-13T00:03:32.300Z,8.02
2019-03-13T00:04:32.273Z,8.12
2019-03-13T00:05:32.345Z,8.11
2019-03-13T00:06:32.249Z,8.22
2019-03-13T00:07:32.258Z,8.23
2019-03-13T00:08:32.230Z,8.19
2019-03-13T00:09:32.213Z,8.12
2019-03-13T00:10:32.732Z,8.19
2019-03-13T00:11:32.232Z,8.20
2019-03-13T00:12:32.179Z,8.22
2019-03-13T00:13:32.172Z,8.28
2019-03-13T00:14:32.149Z,8.30
2019-03-13T00:15:32.164Z,8.25
2019-03-13T00:16:32.172Z,8.23
2019-03-13T00:17:32.170Z,8.28
2019-03-13T00:18:32.106Z,8.33
2019-03-13T00:19:32.136Z,8.28
2019-03-13T00:20:32.084Z,8.38
2019-03-13T00:21:32.100Z,8.37
2019-03-13T00:22:32.058Z,8.40
2019-03-13T00:23:32.083Z,8.44
2019-03-13T00:24:32.041Z,8.52
2019-03-13T00:25:32.064Z,8.40
2019-03-13T00:26:32.015Z,8.43
2019-03-13T00:27:32.037Z,8.38
2019-03-13T00:28:31.990Z,8.37
2019-03-13T00:29:31.982Z,8.45
2019-03-13T00:30:31.967Z,8.38
2019-03-13T00:31:31.953Z,8.38
2019-03-13T00:32:31.990Z,8.50
2019-03-13T00:33:31.982Z,8.50
2019-03-13T00:34:31.922Z,8.50
2019-03-13T00:35:31.905Z,8.50
2019-03-13T00:36:31.894Z,8.56
2019-03-13T00:37:31.889Z,8.43
2019-03-13T00:38:31.913Z,8.50
2019-03-13T00:39:31.867Z,8.56
2019-03-13T00:40:31.849Z,8.61
2019-03-13T00:41:31.962Z,8.56
2019-03-13T00:42:31.860Z,8.53
2019-03-13T00:43:31.825Z,8.62
2019-03-13T00:44:31.802Z,8.62
2019-03-13T00:45:31.800Z,8.59
2019-03-13T00:46:31.780Z,8.50
2019-03-13T00:47:31.815Z,8.62
2019-03-13T00:48:31.764Z,8.53
2019-03-13T00:49:31.758Z,8.53
2019-03-13T00:50:31.741Z,8.59
2019-03-13T00:51:31.765Z,8.53
2019-03-13T00:52:31.718Z,8.61
2019-03-13T00:53:31.704Z,8.61
2019-03-13T00:54:31.733Z,8.68
2019-03-13T00:55:31.723Z,8.65
2019-03-13T00:56:31.672Z,8.68
2019-03-13T00:57:31.665Z,8.71
2019-03-13T00:58:31.649Z,8.63
2019-03-13T00:59:31.638Z,8.65
2019-03-13T01:00:31.666Z,8.71
2019-03-13T01:01:31.622Z,8.65
2019-03-13T01:02:31.604Z,8.76
2019-03-13T01:03:31.593Z,8.73
2019-03-13T01:04:31.582Z,8.65
2019-03-13T01:05:31.642Z,8.74
2019-03-13T01:06:31.557Z,8.70
2019-03-13T01:07:31.547Z,8.74
2019-03-13T01:08:31.535Z,8.77
2019-03-13T01:09:31.588Z,8.81
2019-03-13T01:10:31.522Z,8.77
2019-03-13T01:11:31.568Z,8.79
2019-03-13T01:12:31.495Z,8.87
2019-03-13T01:13:31.482Z,8.76
2019-03-13T01:14:31.492Z,8.79
2019-03-13T01:15:31.457Z,8.84
2019-03-13T01:16:31.444Z,8.74
2019-03-13T01:17:31.480Z,8.77
2019-03-13T01:18:31.427Z,8.76
2019-03-13T01:19:31.412Z,8.81
2019-03-13T01:20:31.410Z,8.80
2019-03-13T01:21:31.453Z,8.77
2019-03-13T01:22:31.403Z,8.81
2019-03-13T01:23:31.366Z,8.70
2019-03-13T01:24:31.358Z,8.83
2019-03-13T01:25:31.345Z,8.79
2019-03-13T01:26:31.333Z,8.76
2019-03-13T01:27:31.361Z,8.71
2019-03-13T01:28:31.325Z,8.71
2019-03-13T01:29:31.308Z,8.62
2019-03-13T01:30:31.295Z,8.62
2019-03-13T01:31:31.332Z,8.71
2019-03-13T01:32:31.315Z,8.62
2019-03-13T01:33:31.262Z,8.59
2019-03-13T01:34:31.248Z,8.62
2019-03-13T01:35:31.240Z,8.62
2019-03-13T01:36:31.225Z,8.58
2019-03-13T01:37:31.254Z,8.61
2019-03-13T01:38:31.201Z,8.56
2019-03-13T01:39:31.210Z,8.58
2019-03-13T01:40:31.187Z,8.47
2019-03-13T01:41:31.176Z,8.43
2019-03-13T01:42:31.202Z,8.44
2019-03-13T01:43:31.196Z,8.44
2019-03-13T01:44:31.134Z,8.44
2019-03-13T01:45:31.128Z,8.37
2019-03-13T01:46:31.121Z,8.22
2019-03-13T01:47:31.104Z,8.23
2019-03-13T01:48:31.096Z,8.01
2019-03-13T01:49:31.200Z,8.02
2019-03-13T01:50:31.075Z,7.87
2019-03-13T01:51:31.055Z,7.80
2019-03-13T01:52:32.256Z,7.79
2019-03-13T01:53:31.070Z,7.68
2019-03-13T01:54:31.020Z,7.55
2019-03-13T01:55:31.069Z,7.57
2019-03-13T01:56:31.002Z,7.40
2019-03-13T01:57:30.989Z,7.42
2019-03-13T01:58:31.028Z,7.37
2019-03-13T01:59:30.972Z,7.49
2019-03-13T02:00:30.957Z,7.45
2019-03-13T02:01:30.966Z,7.37
2019-03-13T02:02:30.935Z,7.43
2019-03-13T02:03:30.966Z,7.43
2019-03-13T02:04:30.954Z,7.34
2019-03-13T02:05:30.925Z,7.25
2019-03-13T02:06:30.896Z,7.25
2019-03-13T02:07:30.887Z,7.30
2019-03-13T02:08:30.868Z,7.15
2019-03-13T02:09:30.896Z,7.12
2019-03-13T02:10:30.891Z,7.13
2019-03-13T02:11:30.834Z,6.92
2019-03-13T02:12:30.831Z,6.94
2019-03-13T02:13:30.816Z,6.94
2019-03-13T02:14:30.801Z,6.91
2019-03-13T02:15:30.794Z,6.89
2019-03-13T02:16:30.829Z,6.91
2019-03-13T02:17:30.774Z,6.84
2019-03-13T02:18:30.762Z,6.85
2019-03-13T02:19:30.749Z,6.79
2019-03-13T02:20:30.777Z,6.81
2019-03-13T02:21:30.727Z,6.74
2019-03-13T02:22:30.723Z,6.71
2019-03-13T02:23:30.704Z,6.89
2019-03-13T02:24:30.695Z,6.70
2019-03-13T02:25:30.726Z,6.62
2019-03-13T02:26:30.673Z,6.67
2019-03-13T02:27:30.664Z,6.56
2019-03-13T02:28:30.649Z,6.64
2019-03-13T02:29:30.642Z,6.73
2019-03-13T02:30:30.626Z,6.58
2019-03-13T02:31:30.693Z,6.59
2019-03-13T02:32:30.611Z,6.71
2019-03-13T02:33:30.593Z,6.64
2019-03-13T02:34:30.582Z,6.62
2019-03-13T02:35:30.568Z,6.67
2019-03-13T02:36:30.561Z,6.67
2019-03-13T02:37:30.592Z,6.76
2019-03-13T02:38:30.580Z,6.62
2019-03-13T02:39:30.524Z,6.61
2019-03-13T02:40:30.532Z,6.64
2019-03-13T02:41:30.505Z,6.62
2019-03-13T02:42:30.534Z,6.69
2019-03-13T02:43:30.481Z,6.62
2019-03-13T02:44:30.484Z,6.62
2019-03-13T02:45:30.469Z,6.66
2019-03-13T02:46:30.443Z,6.55
2019-03-13T02:47:30.441Z,6.67
2019-03-13T02:48:30.478Z,6.67
2019-03-13T02:49:30.468Z,6.64
2019-03-13T02:50:30.451Z,6.67
2019-03-13T02:51:30.387Z,6.58
2019-03-13T02:52:30.381Z,6.69
2019-03-13T02:53:30.377Z,6.76
2019-03-13T02:54:30.401Z,6.77
2019-03-13T02:55:30.356Z,6.80
2019-03-13T02:56:30.337Z,6.81
2019-03-13T02:57:30.331Z,6.79
2019-03-13T02:58:30.313Z,6.85
2019-03-13T02:59:30.344Z,6.84
2019-03-13T03:00:30.295Z,6.89
2019-03-13T03:01:30.281Z,6.84
2019-03-13T03:02:30.278Z,6.85
2019-03-13T03:03:30.291Z,6.85
2019-03-13T03:04:30.247Z,6.85
2019-03-13T03:05:30.236Z,6.91
2019-03-13T03:06:30.253Z,6.92
2019-03-13T03:07:30.216Z,6.94
2019-03-13T03:08:30.240Z,6.88
2019-03-13T03:09:30.242Z,6.97
2019-03-13T03:10:30.218Z,7.03
2019-03-13T03:11:30.174Z,6.92
2019-03-13T03:12:30.164Z,6.91
2019-03-13T03:13:30.157Z,6.99
2019-03-13T03:14:30.145Z,7.10
2019-03-13T03:15:30.156Z,6.99
2019-03-13T03:16:30.108Z,7.02
2019-03-13T03:17:30.146Z,7.06
2019-03-13T03:18:30.097Z,6.99
2019-03-13T03:19:30.080Z,7.10
2019-03-13T03:20:30.102Z,7.06
2019-03-13T03:21:30.082Z,6.99
2019-03-13T03:22:30.041Z,7.07
2019-03-13T03:23:30.031Z,7.02
2019-03-13T03:24:30.029Z,6.94
2019-03-13T03:25:30.067Z,6.97
2019-03-13T03:26:29.999Z,7.06
2019-03-13T03:27:29.991Z,7.02
2019-03-13T03:28:29.972Z,7.03
2019-03-13T03:29:29.964Z,7.06
2019-03-13T03:30:29.973Z,7.12
2019-03-13T03:31:29.983Z,7.10
2019-03-13T03:32:29.944Z,7.12
2019-03-13T03:33:29.921Z,7.10
2019-03-13T03:34:29.935Z,7.16
2019-03-13T03:35:29.899Z,7.02
2019-03-13T03:36:29.922Z,7.13
2019-03-13T03:37:29.918Z,7.17
2019-03-13T03:38:29.861Z,7.13
2019-03-13T03:39:29.858Z,7.09
2019-03-13T03:40:29.842Z,7.15
2019-03-13T03:41:29.873Z,7.12
2019-03-13T03:42:29.816Z,7.03
2019-03-13T03:43:40.349Z,6.98
2019-03-13T03:44:30.794Z,6.98
2019-03-13T03:45:29.782Z,6.98
2019-03-13T03:46:29.810Z,6.92
2019-03-13T03:47:29.806Z,6.92
2019-03-13T03:48:29.892Z,6.89
2019-03-13T03:49:29.742Z,6.84
2019-03-13T03:50:29.731Z,6.84
2019-03-13T03:51:29.720Z,6.85
2019-03-13T03:52:29.723Z,6.76
2019-03-13T03:53:29.754Z,6.89
2019-03-13T03:54:29.687Z,6.79
2019-03-13T03:55:29.675Z,6.79
2019-03-13T03:56:29.665Z,6.76
2019-03-13T03:57:29.699Z,6.77
2019-03-13T03:58:30.114Z,6.77
2019-03-13T03:59:29.629Z,6.77
2019-03-13T04:00:29.616Z,6.71
2019-03-13T04:01:29.610Z,6.74
2019-03-13T04:02:29.623Z,6.67
2019-03-13T04:03:29.646Z,6.71
2019-03-13T04:04:29.577Z,6.67
2019-03-13T04:05:29.559Z,6.64
2019-03-13T04:06:29.557Z,6.66
2019-03-13T04:07:29.545Z,6.64
2019-03-13T04:08:29.579Z,6.67
2019-03-13T04:09:29.513Z,6.66
2019-03-13T04:10:29.550Z,6.74
2019-03-13T04:11:29.495Z,6.71
2019-03-13T04:12:29.486Z,6.73
2019-03-13T04:13:29.510Z,6.64
2019-03-13T04:14:29.504Z,6.69
2019-03-13T04:15:29.468Z,6.66
2019-03-13T04:16:29.435Z,6.71
2019-03-13T04:17:29.452Z,6.71
2019-03-13T04:18:29.445Z,6.71
2019-03-13T04:19:29.523Z,6.59
2019-03-13T04:20:29.413Z,6.59
2019-03-13T04:21:29.378Z,6.58
2019-03-13T04:22:29.391Z,6.55
2019-03-13T04:23:29.370Z,6.54
2019-03-13T04:24:29.400Z,6.52
2019-03-13T04:25:29.333Z,6.49
2019-03-13T04:26:29.330Z,6.48
2019-03-13T04:27:29.315Z,6.38
2019-03-13T04:28:29.311Z,6.38
2019-03-13T04:29:29.414Z,6.37
2019-03-13T04:30:29.303Z,6.43
2019-03-13T04:31:29.274Z,6.44
2019-03-13T04:32:29.272Z,6.33
2019-03-13T04:33:29.259Z,6.38
2019-03-13T04:34:29.283Z,6.36
2019-03-13T04:35:29.241Z,6.31
2019-03-13T04:36:29.220Z,6.38
2019-03-13T04:37:29.203Z,6.33
2019-03-13T04:38:29.187Z,6.31
2019-03-13T04:39:29.227Z,6.33
2019-03-13T04:40:29.164Z,6.31
2019-03-13T04:41:29.226Z,6.36
2019-03-13T04:42:29.149Z,6.34
2019-03-13T04:43:29.158Z,6.27
2019-03-13T04:44:29.124Z,6.27
2019-03-13T04:45:29.112Z,6.22
2019-03-13T04:46:29.101Z,6.22
2019-03-13T04:47:29.166Z,6.28
2019-03-13T04:48:29.073Z,6.22
2019-03-13T04:49:29.069Z,6.14
2019-03-13T04:50:29.054Z,6.21
2019-03-13T04:51:29.048Z,6.15
2019-03-13T04:52:29.034Z,6.14
2019-03-13T04:53:29.067Z,6.15
2019-03-13T04:54:29.009Z,6.22
2019-03-13T04:55:29.043Z,6.15
2019-03-13T04:56:29.005Z,6.17
2019-03-13T04:57:29.014Z,6.06
2019-03-13T04:58:29.009Z,6.14
2019-03-13T04:59:28.958Z,6.15
2019-03-13T05:00:29.056Z,6.11
2019-03-13T05:01:28.935Z,6.11
2019-03-13T05:02:28.937Z,6.14
2019-03-13T05:03:28.909Z,6.14
2019-03-13T05:04:28.897Z,6.15
2019-03-13T05:05:28.931Z,6.11
2019-03-13T05:06:28.877Z,6.11
2019-03-13T05:07:28.871Z,6.15
2019-03-13T05:08:28.853Z,6.19
2019-03-13T05:09:28.837Z,6.15
2019-03-13T05:10:28.842Z,6.08
2019-03-13T05:11:28.860Z,6.08
2019-03-13T05:12:28.804Z,6.11
2019-03-13T05:13:28.797Z,6.04
2019-03-13T05:14:28.784Z,5.97
2019-03-13T05:15:28.787Z,5.96
2019-03-13T05:16:28.773Z,5.94
2019-03-13T05:17:28.887Z,5.93
2019-03-13T05:18:28.807Z,5.91
2019-03-13T05:19:28.728Z,5.94
2019-03-13T05:20:28.730Z,5.96
2019-03-13T05:21:28.708Z,5.90
2019-03-13T05:22:28.698Z,5.93
2019-03-13T05:23:28.681Z,5.93
2019-03-13T05:24:28.746Z,5.93
2019-03-13T05:25:28.662Z,5.91
2019-03-13T05:26:28.646Z,5.82
2019-03-13T05:27:28.642Z,5.85
2019-03-13T05:28:28.632Z,5.90
2019-03-13T05:29:28.612Z,5.91
2019-03-13T05:30:28.666Z,5.93
2019-03-13T05:31:28.592Z,5.91
2019-03-13T05:32:28.585Z,5.86
2019-03-13T05:33:28.571Z,5.96
2019-03-13T05:34:28.557Z,5.82
2019-03-13T05:35:28.557Z,5.86
2019-03-13T05:36:28.585Z,5.83
2019-03-13T05:37:28.533Z,5.76
2019-03-13T05:38:28.514Z,5.85
2019-03-13T05:39:28.503Z,5.86
2019-03-13T05:40:28.550Z,5.79
2019-03-13T05:41:28.490Z,5.85
2019-03-13T05:42:28.471Z,5.82
2019-03-13T05:43:28.522Z,5.79
2019-03-13T05:44:28.451Z,5.86
2019-03-13T05:45:28.439Z,5.91
2019-03-13T05:46:28.430Z,5.89
2019-03-13T05:47:28.419Z,5.89
2019-03-13T05:48:28.448Z,5.82
2019-03-13T05:49:28.399Z,5.93
2019-03-13T05:50:31.358Z,5.83
2019-03-13T05:51:28.366Z,5.85
2019-03-13T05:52:28.491Z,5.86
2019-03-13T05:53:28.349Z,5.90
2019-03-13T05:54:28.336Z,5.86
2019-03-13T05:55:28.337Z,5.81
2019-03-13T05:56:28.326Z,5.89
2019-03-13T05:57:28.300Z,5.86
2019-03-13T05:58:28.334Z,5.89
2019-03-13T05:59:28.277Z,5.82
2019-03-13T06:00:28.270Z,5.82
2019-03-13T06:01:28.254Z,5.79
2019-03-13T06:02:28.294Z,5.75
2019-03-13T06:03:28.294Z,5.67
2019-03-13T06:04:28.232Z,5.74
2019-03-13T06:05:28.214Z,5.72
2019-03-13T06:06:28.204Z,5.72
2019-03-13T06:07:28.194Z,5.65
2019-03-13T06:08:28.176Z,5.71
2019-03-13T06:09:28.213Z,5.79
2019-03-13T06:10:28.162Z,5.79
2019-03-13T06:11:28.146Z,5.75
2019-03-13T06:12:28.144Z,5.79
2019-03-13T06:13:28.126Z,5.81
2019-03-13T06:14:28.153Z,5.89
2019-03-13T06:15:28.103Z,5.86
2019-03-13T06:16:28.088Z,5.85
2019-03-13T06:17:28.128Z,5.96
2019-03-13T06:18:28.096Z,5.85
2019-03-13T06:19:28.096Z,5.86
2019-03-13T06:20:28.046Z,5.94
2019-03-13T06:21:28.042Z,5.89
2019-03-13T06:22:28.027Z,5.90
2019-03-13T06:23:28.029Z,5.86
2019-03-13T06:24:28.002Z,5.91
2019-03-13T06:25:28.035Z,5.85
2019-03-13T06:26:27.979Z,5.96
2019-03-13T06:27:27.968Z,6.06
2019-03-13T06:28:27.963Z,5.94
2019-03-13T06:29:27.946Z,5.94
2019-03-13T06:30:27.975Z,6.01
2019-03-13T06:31:28.020Z,6.06
2019-03-13T06:32:27.952Z,6.11
2019-03-13T06:33:27.906Z,5.99
2019-03-13T06:34:27.890Z,5.96
2019-03-13T06:35:27.922Z,5.97
2019-03-13T06:36:27.906Z,5.99
2019-03-13T06:37:27.859Z,6.00
2019-03-13T06:38:27.847Z,5.93
2019-03-13T06:39:27.830Z,6.12
2019-03-13T06:40:27.872Z,6.01
2019-03-13T06:41:27.879Z,6.09
2019-03-13T06:42:27.823Z,6.03
2019-03-13T06:43:27.801Z,6.01
2019-03-13T06:44:27.781Z,6.04
2019-03-13T06:45:27.766Z,6.08
2019-03-13T06:46:27.860Z,6.14
2019-03-13T06:47:27.745Z,6.09
2019-03-13T06:48:27.728Z,6.09
2019-03-13T06:49:27.721Z,6.08
2019-03-13T06:50:27.713Z,6.08
2019-03-13T06:51:27.753Z,6.14
2019-03-13T06:52:27.689Z,5.99
2019-03-13T06:53:27.677Z,6.03
2019-03-13T06:54:27.664Z,6.04
2019-03-13T06:55:27.654Z,6.06
2019-03-13T06:56:27.706Z,5.99
2019-03-13T06:57:27.682Z,6.06
2019-03-13T06:58:27.620Z,6.09
2019-03-13T06:59:27.653Z,6.11
2019-03-13T07:00:27.602Z,6.03
2019-03-13T07:01:27.629Z,6.08
2019-03-13T07:02:27.621Z,6.11
2019-03-13T07:03:27.565Z,6.06
2019-03-13T07:04:27.599Z,6.11
2019-03-13T07:05:27.547Z,6.15
2019-03-13T07:06:27.590Z,6.09
2019-03-13T07:07:27.569Z,6.01
2019-03-13T07:08:27.512Z,6.08
2019-03-13T07:09:27.498Z,6.14
2019-03-13T07:10:27.481Z,6.00
2019-03-13T07:11:27.545Z,5.90
2019-03-13T07:12:27.578Z,5.94
2019-03-13T07:13:27.448Z,5.93
2019-03-13T07:14:27.437Z,5.90
2019-03-13T07:15:27.425Z,5.93
2019-03-13T07:16:27.414Z,5.93
2019-03-13T07:17:27.405Z,5.90
2019-03-13T07:18:27.573Z,5.91
2019-03-13T07:19:27.386Z,5.97
2019-03-13T07:20:27.391Z,5.90
2019-03-13T07:21:27.378Z,5.99
2019-03-13T07:22:27.359Z,6.08
2019-03-13T07:23:27.354Z,6.06
2019-03-13T07:24:27.371Z,6.04
2019-03-13T07:25:27.323Z,6.08
2019-03-13T07:26:27.304Z,6.19
2019-03-13T07:27:27.296Z,6.14
2019-03-13T07:28:27.287Z,6.15
2019-03-13T07:29:27.318Z,6.22
2019-03-13T07:30:27.259Z,6.27
2019-03-13T07:31:27.248Z,6.11
2019-03-13T07:32:27.247Z,6.17
2019-03-13T07:33:27.232Z,6.18
2019-03-13T07:34:27.273Z,6.27
2019-03-13T07:35:27.252Z,6.25
2019-03-13T07:36:27.242Z,6.27
2019-03-13T07:37:27.186Z,6.21
2019-03-13T07:38:27.173Z,6.37
2019-03-13T07:39:27.168Z,6.28
2019-03-13T07:40:27.227Z,6.25
2019-03-13T07:41:27.137Z,6.31
2019-03-13T07:42:27.170Z,6.19
2019-03-13T07:43:27.120Z,6.21
2019-03-13T07:44:27.105Z,6.08
2019-03-13T07:45:27.116Z,6.06
2019-03-13T07:46:27.093Z,6.11
2019-03-13T07:47:29.236Z,6.21
2019-03-13T07:48:27.114Z,6.14
2019-03-13T07:49:27.054Z,6.25
2019-03-13T07:50:27.106Z,6.21
2019-03-13T07:51:27.026Z,6.28
2019-03-13T07:52:27.069Z,6.22
2019-03-13T07:53:27.028Z,6.41
2019-03-13T07:54:26.992Z,6.49
2019-03-13T07:55:26.982Z,6.46
2019-03-13T07:56:26.975Z,6.49
2019-03-13T07:57:27.014Z,6.52
2019-03-13T07:58:26.969Z,6.52
2019-03-13T07:59:26.959Z,6.59
2019-03-13T08:00:26.947Z,6.49
2019-03-13T08:01:26.985Z,6.55
2019-03-13T08:02:26.915Z,6.58
2019-03-13T08:03:26.904Z,6.51
2019-03-13T08:04:26.889Z,6.61
2019-03-13T08:05:26.880Z,6.55
2019-03-13T08:06:26.867Z,6.59
2019-03-13T08:07:26.895Z,6.62
2019-03-13T08:08:26.884Z,6.56
2019-03-13T08:09:26.877Z,6.73
2019-03-13T08:10:26.824Z,6.73
2019-03-13T08:11:26.821Z,6.74
2019-03-13T08:12:26.799Z,6.67
2019-03-13T08:13:26.834Z,6.70
2019-03-13T08:14:26.778Z,6.62
2019-03-13T08:15:26.805Z,6.71
2019-03-13T08:16:26.795Z,6.76
2019-03-13T08:17:26.745Z,6.87
2019-03-13T08:18:26.791Z,6.80
2019-03-13T08:19:26.733Z,6.92
2019-03-13T08:20:26.712Z,6.92
2019-03-13T08:21:26.750Z,6.88
2019-03-13T08:22:26.696Z,6.95
2019-03-13T08:23:26.740Z,7.02
2019-03-13T08:24:26.674Z,7.03
2019-03-13T08:25:26.665Z,7.05
2019-03-13T08:26:26.654Z,7.15
2019-03-13T08:27:26.638Z,7.23
2019-03-13T08:28:26.628Z,7.17
2019-03-13T08:29:26.682Z,7.10
2019-03-13T08:30:26.613Z,7.25
2019-03-13T08:31:26.596Z,7.09
2019-03-13T08:32:26.591Z,7.28
2019-03-13T08:33:26.576Z,7.21
2019-03-13T08:34:26.574Z,7.24
2019-03-13T08:35:26.605Z,7.23
2019-03-13T08:36:26.547Z,7.39
2019-03-13T08:37:26.540Z,7.28
2019-03-13T08:38:26.523Z,7.34
2019-03-13T08:39:26.515Z,7.28
2019-03-13T08:40:26.589Z,7.37
2019-03-13T08:41:26.487Z,7.45
2019-03-13T08:42:26.531Z,7.42
2019-03-13T08:43:26.475Z,7.39
2019-03-13T08:44:26.521Z,7.40
2019-03-13T08:45:26.447Z,7.42
2019-03-13T08:46:26.499Z,7.48
2019-03-13T08:47:26.425Z,7.48
2019-03-13T08:48:26.412Z,7.48
2019-03-13T08:49:26.396Z,7.63
2019-03-13T08:50:26.389Z,7.58
2019-03-13T08:51:26.378Z,7.58
2019-03-13T08:52:26.416Z,7.67
2019-03-13T08:53:26.400Z,7.75
2019-03-13T08:54:26.342Z,7.71
2019-03-13T08:55:26.331Z,7.79
2019-03-13T08:56:26.359Z,7.74
2019-03-13T08:57:26.307Z,7.72
2019-03-13T08:58:26.302Z,7.77
2019-03-13T08:59:26.335Z,7.92
2019-03-13T09:00:26.277Z,7.89
2019-03-13T09:01:26.350Z,7.86
2019-03-13T09:02:26.260Z,7.87
2019-03-13T09:03:26.308Z,7.80
2019-03-13T09:04:26.253Z,7.83
2019-03-13T09:05:26.221Z,7.83
2019-03-13T09:06:26.219Z,7.93
2019-03-13T09:07:26.243Z,8.04
2019-03-13T09:08:26.237Z,8.00
2019-03-13T09:09:26.184Z,7.95
2019-03-13T09:10:26.160Z,7.93
2019-03-13T09:11:26.158Z,8.05
2019-03-13T09:12:26.143Z,8.16
2019-03-13T09:13:26.174Z,8.15
2019-03-13T09:14:26.163Z,8.18
2019-03-13T09:15:26.112Z,8.19
2019-03-13T09:16:26.099Z,8.36
2019-03-13T09:17:26.094Z,8.20
2019-03-13T09:18:26.080Z,8.47
2019-03-13T09:19:26.097Z,8.37
2019-03-13T09:20:26.112Z,8.26
2019-03-13T09:21:26.069Z,8.26
2019-03-13T09:22:26.028Z,8.20
2019-03-13T09:23:26.018Z,8.20
2019-03-13T09:24:26.025Z,8.20
2019-03-13T09:25:26.008Z,8.19
2019-03-13T09:26:26.030Z,8.20
2019-03-13T09:27:25.985Z,8.23
2019-03-13T09:28:25.962Z,8.37
2019-03-13T09:29:26.080Z,8.23
2019-03-13T09:30:25.939Z,8.45
2019-03-13T09:31:25.994Z,8.50
2019-03-13T09:32:25.920Z,8.52
2019-03-13T09:33:25.906Z,8.61
2019-03-13T09:34:25.946Z,8.63
2019-03-13T09:35:25.895Z,8.59
2019-03-13T09:36:25.877Z,8.58
2019-03-13T09:37:25.908Z,8.70
2019-03-13T09:38:25.857Z,8.86
2019-03-13T09:39:25.855Z,8.91
2019-03-13T09:40:25.884Z,9.01
2019-03-13T09:41:25.824Z,9.08
2019-03-13T09:42:25.813Z,9.15
2019-03-13T09:43:25.809Z,9.14
2019-03-13T09:44:25.791Z,9.01
2019-03-13T09:45:25.776Z,8.83
2019-03-13T09:46:25.822Z,8.91
2019-03-13T09:47:25.749Z,8.89
2019-03-13T09:48:25.743Z,8.99
2019-03-13T09:49:25.784Z,8.89
2019-03-13T09:50:25.727Z,9.02
2019-03-13T09:51:25.702Z,9.05
2019-03-13T09:52:25.742Z,9.14
2019-03-13T09:53:25.690Z,9.23
2019-03-13T09:54:25.675Z,9.36
2019-03-13T09:55:25.668Z,9.32
2019-03-13T09:56:25.650Z,9.36
2019-03-13T09:57:25.685Z,9.28
2019-03-13T09:58:25.646Z,9.18
2019-03-13T09:59:25.618Z,9.15
2019-03-13T10:00:25.606Z,9.23
2019-03-13T10:01:25.604Z,9.21
2019-03-13T10:02:25.643Z,9.17
2019-03-13T10:03:25.597Z,9.26
2019-03-13T10:04:25.567Z,9.15
2019-03-13T10:05:25.552Z,9.21
2019-03-13T10:06:25.543Z,9.33
2019-03-13T10:07:25.590Z,9.23
2019-03-13T10:08:25.518Z,9.21
2019-03-13T10:09:25.504Z,9.23
2019-03-13T10:10:25.501Z,9.28
2019-03-13T10:11:25.480Z,9.23
2019-03-13T10:12:25.523Z,9.24
2019-03-13T10:13:25.521Z,9.24
2019-03-13T10:14:26.805Z,9.23
2019-03-13T10:15:25.436Z,9.24
2019-03-13T10:16:25.427Z,9.26
2019-03-13T10:17:25.416Z,9.14
2019-03-13T10:18:25.408Z,9.24
2019-03-13T10:19:25.439Z,9.31
2019-03-13T10:20:25.386Z,9.33
2019-03-13T10:21:25.479Z,9.38
2019-03-13T10:22:25.439Z,9.38
2019-03-13T10:23:25.411Z,9.51
2019-03-13T10:24:25.495Z,9.48
2019-03-13T10:25:25.364Z,9.60
2019-03-13T10:26:25.426Z,9.58
2019-03-13T10:27:25.373Z,9.64
2019-03-13T10:28:25.314Z,9.71
2019-03-13T10:29:25.302Z,9.76
2019-03-13T10:30:25.360Z,9.72
2019-03-13T10:31:25.304Z,9.81
2019-03-13T10:32:25.277Z,9.74
2019-03-13T10:33:25.266Z,9.79
2019-03-13T10:34:25.230Z,9.81
2019-03-13T10:35:25.263Z,9.81
2019-03-13T10:36:25.214Z,9.69
2019-03-13T10:37:25.198Z,9.66
2019-03-13T10:38:25.196Z,9.76
2019-03-13T10:39:25.178Z,9.69
2019-03-13T10:40:25.212Z,9.64
2019-03-13T10:41:25.158Z,9.51
2019-03-13T10:42:25.142Z,9.60
2019-03-13T10:43:25.135Z,9.65
2019-03-13T10:44:25.215Z,9.69
2019-03-13T10:45:25.164Z,9.71
2019-03-13T10:46:25.102Z,9.89
2019-03-13T10:47:25.138Z,9.94
2019-03-13T10:48:25.078Z,9.97
2019-03-13T10:49:25.062Z,10.04
2019-03-13T10:50:25.056Z,10.01
2019-03-13T10:51:25.043Z,9.97
2019-03-13T10:52:25.038Z,10.04
2019-03-13T10:53:25.066Z,10.04
2019-03-13T10:54:25.006Z,9.93
2019-03-13T10:55:24.994Z,9.87
2019-03-13T10:56:24.990Z,9.87
2019-03-13T10:57:24.972Z,9.87
2019-03-13T10:58:25.004Z,9.86
2019-03-13T10:59:24.947Z,9.96
2019-03-13T11:00:24.936Z,10.12
2019-03-13T11:01:24.984Z,10.18
2019-03-13T11:02:24.921Z,10.29
2019-03-13T11:03:24.908Z,10.41
2019-03-13T11:04:24.911Z,10.23
2019-03-13T11:05:24.888Z,10.17
2019-03-13T11:06:24.876Z,10.23
2019-03-13T11:07:24.903Z,9.99
2019-03-13T11:08:24.855Z,9.93
2019-03-13T11:09:24.878Z,9.89
2019-03-13T11:10:24.832Z,9.96
2019-03-13T11:11:24.819Z,10.05
2019-03-13T11:12:24.803Z,10.09
2019-03-13T11:13:24.832Z,10.25
2019-03-13T11:14:24.796Z,10.22
2019-03-13T11:15:24.774Z,10.22
2019-03-13T11:16:24.814Z,10.22
2019-03-13T11:17:24.819Z,10.11
2019-03-13T11:18:24.799Z,10.23
2019-03-13T11:19:24.727Z,10.20
2019-03-13T11:20:24.729Z,10.15
2019-03-13T11:21:24.702Z,10.26
2019-03-13T11:22:24.697Z,10.38
2019-03-13T11:23:24.681Z,10.48
2019-03-13T11:24:24.721Z,10.52
2019-03-13T11:25:24.667Z,10.66
2019-03-13T11:26:24.659Z,10.55
2019-03-13T11:27:24.639Z,10.67
2019-03-13T11:28:24.630Z,10.67
2019-03-13T11:29:24.667Z,10.73
2019-03-13T11:30:24.617Z,10.68
2019-03-13T11:31:24.598Z,10.66
2019-03-13T11:32:24.589Z,10.60
2019-03-13T11:33:24.587Z,10.52
2019-03-13T11:34:24.617Z,10.40
2019-03-13T11:35:24.554Z,10.40
2019-03-13T11:36:24.545Z,10.42
2019-03-13T11:37:24.532Z,10.23
2019-03-13T11:38:24.524Z,10.08
2019-03-13T11:39:24.527Z,10.17
2019-03-13T11:40:24.547Z,10.12
2019-03-13T11:41:24.484Z,10.22
2019-03-13T11:42:24.477Z,10.18
2019-03-13T11:43:24.498Z,10.22
2019-03-13T11:44:24.463Z,10.40
2019-03-13T11:45:24.450Z,10.38
2019-03-13T11:46:24.491Z,10.44
2019-03-13T11:47:24.418Z,10.47
2019-03-13T11:48:24.409Z,10.25
2019-03-13T11:49:24.402Z,10.04
2019-03-13T11:50:24.392Z,9.91
2019-03-13T11:51:24.414Z,9.91
2019-03-13T11:52:24.362Z,9.97
2019-03-13T11:53:24.353Z,10.05
2019-03-13T11:54:24.342Z,10.07
2019-03-13T11:55:24.387Z,10.08
2019-03-13T11:56:24.331Z,10.23
2019-03-13T11:57:24.306Z,10.23
2019-03-13T11:58:24.311Z,10.09
2019-03-13T11:59:24.284Z,10.04
2019-03-13T12:00:24.283Z,9.96
2019-03-13T12:01:24.327Z,9.91
2019-03-13T12:02:24.251Z,9.89
2019-03-13T12:03:24.259Z,9.89
2019-03-13T12:04:24.230Z,9.96
2019-03-13T12:05:24.221Z,9.97
2019-03-13T12:06:24.210Z,10.05
2019-03-13T12:07:24.244Z,9.99
2019-03-13T12:08:24.184Z,9.86
2019-03-13T12:09:24.205Z,9.87
2019-03-13T12:10:24.173Z,9.87
2019-03-13T12:11:24.213Z,9.76
2019-03-13T12:12:24.145Z,9.76
2019-03-13T12:13:24.131Z,9.78
2019-03-13T12:14:24.117Z,9.74
2019-03-13T12:15:24.110Z,9.75
2019-03-13T12:16:24.097Z,9.76
2019-03-13T12:17:24.130Z,9.72
2019-03-13T12:18:24.113Z,9.75
2019-03-13T12:19:24.061Z,9.64
2019-03-13T12:20:24.079Z,9.69
2019-03-13T12:21:24.094Z,9.54
2019-03-13T12:22:24.065Z,9.66
2019-03-13T12:23:24.090Z,9.58
2019-03-13T12:24:24.047Z,9.57
2019-03-13T12:25:24.082Z,9.53
2019-03-13T12:26:24.018Z,9.54
2019-03-13T12:27:23.994Z,9.56
2019-03-13T12:28:23.996Z,9.48
2019-03-13T12:29:23.955Z,9.54
2019-03-13T12:30:23.937Z,9.51
2019-03-13T12:31:23.973Z,9.50
2019-03-13T12:32:23.918Z,9.38
2019-03-13T12:33:23.943Z,9.40
2019-03-13T12:34:23.893Z,9.39
2019-03-13T12:35:23.879Z,9.35
2019-03-13T12:36:23.871Z,9.38
2019-03-13T12:37:23.990Z,9.39
2019-03-13T12:38:23.931Z,9.42
2019-03-13T12:39:23.956Z,9.38
2019-03-13T12:40:23.936Z,9.40
2019-03-13T12:41:24.110Z,9.42
2019-03-13T12:42:23.904Z,9.39
2019-03-13T12:43:23.879Z,9.43
2019-03-13T12:44:23.917Z,9.38
2019-03-13T12:45:24.057Z,9.38
2019-03-13T12:46:23.853Z,9.51
2019-03-13T12:47:24.059Z,9.50
2019-03-13T12:48:23.808Z,9.57
2019-03-13T12:49:23.842Z,9.56
2019-03-13T12:50:23.736Z,9.48
2019-03-13T12:51:23.727Z,9.46
2019-03-13T12:52:23.713Z,9.36
2019-03-13T12:53:23.676Z,9.50
2019-03-13T12:54:23.686Z,9.51
2019-03-13T12:55:23.657Z,9.47
2019-03-13T12:56:23.642Z,9.38
2019-03-13T12:57:23.680Z,9.40
2019-03-13T12:58:23.719Z,9.36
2019-03-13T12:59:23.638Z,9.38
2019-03-13T13:00:23.672Z,9.35
2019-03-13T13:01:23.616Z,9.36
2019-03-13T13:02:23.661Z,9.32
2019-03-13T13:03:23.870Z,9.38
2019-03-13T13:04:24.244Z,9.35
2019-03-13T13:05:23.861Z,9.39
2019-03-13T13:06:23.639Z,9.33
2019-03-13T13:07:23.656Z,9.28
2019-03-13T13:08:23.593Z,9.36
2019-03-13T13:09:25.553Z,9.36
2019-03-13T13:10:23.488Z,9.40
2019-03-13T13:11:23.475Z,9.40
2019-03-13T13:12:23.471Z,9.38
2019-03-13T13:13:23.457Z,9.31
2019-03-13T13:14:23.443Z,9.35
2019-03-13T13:15:23.597Z,9.33
2019-03-13T13:16:23.465Z,9.26